메인 페이지
METAR-TAF:

METAR-TAF

공항 :

Sumburgh, 셰틀랜드, 스코틀랜드

위도: 59-53N, 경도: 001-18W, 고도: 5m

현재 날씨관측

예보는 35분 전, 22:50시(UTC)에 발표되었습니다.
4kt
온도 13°C
습도 88%
기압 1013 hPa
시정 10km 이상

METAR: EGPB 242250Z AUTO 17004KT 9999 NCD 13/11 Q1013

시각: 00:25 (23:25 UTC)

예보

예보는 3 시간 30분 전, 19:55시(UTC)에 발표되었습니다.
예보 대상 시간: 24일 21시부터 25일 06시까지 (UTC)
7kt
시정 10km 이상
고도 500ft 상공 구름 조금
고도 4000ft 상공 구름 보통
확률 30% :
일시적
24일 21시부터 25일 04시까지 (UTC)
시정: 8000m
전환 중
25일 04시부터 25일 06시까지 (UTC)
서남서12kt
일시적
25일 04시부터 25일 06시까지 (UTC)
시정: 6000m
고도 400ft 상공 구름 많음

TAF: EGPB 241955Z 2421/2506 18007KT 9999 FEW005 SCT040 PROB30 TEMPO 2421/2504 8000 BECMG 2504/2506 24012KT TEMPO 2504/2506 6000 BKN004

4,000개 이상의 공항 관측 자료 및 예보 (METAR 및 TAF 보고).

지도상에서 검색 가능한 기상관측소가 노란 점과 빨간 점으로 표시되어 있습니다.

기상관측소 명을 보려면 표시 위로 마우스를 이동하세요.

날씨 관측과 예보를 보려면 클릭하세요.

지도 변경 : 확대하려면 엑스 표시가 있는 녹색 버튼, 축소하려면 빼기 표시가 있는 녹색 버튼, 다음 페이지의 지도를 보려면 녹색 화살표를 클릭하세요.


METAR-TAF: